Weather at Fort Frances Municipal Airport

Public forecast

Using degrees Celsius for public forecast. Weather courtesy of forecast.io.

Closest aviation weather report (METAR) to Fort Frances Municipal Airport

Closest report is Falls International Airport, 5.5 nm (10.1 km) SSE. Retrieved 2021/01/22 23:54 UTC (8 minutes ago):

KINL 222354Z AUTO 22003KT 10SM OVC027 M11/M15 A3007 RMK AO2 SLP217 60000 T11111150 11100 21156 51009

Closest aviation forecast (TAF) to Fort Frances Municipal Airport

Closest forecast is Falls International Airport, 5.5 nm (10.1 km) SSE. Retrieved 2021-01-23 00:39 UTC (0 seconds ago):

TAF KINL 222335Z 2300/2324 24005KT 6SM BR OVC025 FM230500 00000KT P6SM BKN040 FM231300 15005KT P6SM BKN026 FM231500 15005KT P6SM SCT060